Time;durP1;ratioP1;P1;durP2;ratioP2;P2;SDS_P1;SDS_P2;PMS_P1;PMS_P2;Temp;Humidity;BMP_temperature;BMP_pressure;BME280_temperature;BME280_humidity;BME280_pressure;Samples;Min_cycle;Max_cycle;Signal;HPM_P1;HPM_P2
2023/08/11 00:00:47;;;;;;;3.53;2.35;;;19.10;99.90;;;;;;5016124;28;20265;-63
2023/08/11 00:03:13;;;;;;;5.53;2.40;;;19.10;99.90;;;;;;5016181;28;20229;-63
2023/08/11 00:05:39;;;;;;;3.22;2.50;;;19.00;99.90;;;;;;5016419;28;20193;-64
2023/08/11 00:08:05;;;;;;;6.15;2.40;;;19.00;99.90;;;;;;5015263;28;20175;-62
2023/08/11 00:10:34;;;;;;;3.05;2.17;;;19.00;99.90;;;;;;5013848;28;20171;-63
2023/08/11 00:13:01;;;;;;;3.65;2.40;;;19.00;99.90;;;;;;5016016;28;20210;-63
2023/08/11 00:15:30;;;;;;;3.00;2.42;;;18.90;99.90;;;;;;5015827;28;20202;-63
2023/08/11 00:18:02;;;;;;;3.10;2.45;;;18.90;99.90;;;;;;5016819;28;20229;-63
2023/08/11 00:20:33;;;;;;;5.13;2.65;;;18.90;99.90;;;;;;5015390;28;20198;-63
2023/08/11 00:22:58;;;;;;;5.18;2.53;;;18.80;99.90;;;;;;5015905;28;20242;-63
2023/08/11 00:25:24;;;;;;;4.80;2.88;;;18.80;99.90;;;;;;5016142;28;20177;-63
2023/08/11 00:27:52;;;;;;;5.40;2.70;;;18.80;99.90;;;;;;5011406;28;20481;-63
2023/08/11 00:30:20;;;;;;;4.15;2.88;;;18.80;99.90;;;;;;5001612;28;20188;-64
2023/08/11 00:32:46;;;;;;;3.50;2.30;;;18.70;99.90;;;;;;5012804;28;20183;-63
2023/08/11 00:35:11;;;;;;;3.75;2.55;;;18.80;99.90;;;;;;5030370;28;20188;-63
2023/08/11 00:37:39;;;;;;;3.45;2.55;;;18.70;99.90;;;;;;5032283;28;20202;-64
2023/08/11 00:40:11;;;;;;;3.33;2.40;;;18.70;99.90;;;;;;5004380;28;20278;-63
2023/08/11 00:42:37;;;;;;;3.25;2.60;;;18.70;99.90;;;;;;4995960;28;20199;-64
2023/08/11 00:45:04;;;;;;;3.88;2.63;;;18.70;99.90;;;;;;5009438;28;20228;-66
2023/08/11 00:47:32;;;;;;;4.80;2.60;;;18.60;99.90;;;;;;5044366;23;20304;-65
2023/08/11 00:49:59;;;;;;;3.95;2.63;;;18.60;99.90;;;;;;4995305;28;20203;-65
2023/08/11 00:52:25;;;;;;;3.92;2.58;;;18.60;99.90;;;;;;4991699;28;20179;-63
2023/08/11 00:54:56;;;;;;;4.18;2.85;;;18.60;99.90;;;;;;4995697;28;20175;-63
2023/08/11 00:57:24;;;;;;;5.75;3.22;;;18.50;99.90;;;;;;4995935;28;20413;-63
2023/08/11 00:59:52;;;;;;;5.68;3.72;;;18.50;99.90;;;;;;4986479;28;20196;-63
2023/08/11 01:02:18;;;;;;;5.78;3.65;;;18.40;99.90;;;;;;4988261;28;20458;-65
2023/08/11 01:04:48;;;;;;;5.47;3.80;;;18.40;99.90;;;;;;4995116;28;20179;-64
2023/08/11 01:07:33;;;;;;;8.50;3.97;;;18.40;99.90;;;;;;4995036;28;20179;-64
2023/08/11 01:10:12;;;;;;;7.10;3.78;;;18.40;99.90;;;;;;4992406;28;20234;-64
2023/08/11 01:13:05;;;;;;;7.22;4.20;;;18.30;99.90;;;;;;4993192;28;20183;-65
2023/08/11 01:15:40;;;;;;;8.25;3.80;;;18.30;99.90;;;;;;5006058;28;20195;-64
2023/08/11 01:18:07;;;;;;;6.43;3.45;;;18.30;99.90;;;;;;4990987;28;20176;-66
2023/08/11 01:20:38;;;;;;;5.65;3.67;;;18.20;99.90;;;;;;4992008;28;20266;-64
2023/08/11 01:23:06;;;;;;;9.00;4.20;;;18.20;99.90;;;;;;4994374;28;20277;-64
2023/08/11 01:25:36;;;;;;;5.07;3.38;;;18.20;99.90;;;;;;4995518;28;20175;-65
2023/08/11 01:28:02;;;;;;;7.63;4.00;;;18.20;99.90;;;;;;4995192;28;20175;-65
2023/08/11 01:30:30;;;;;;;6.60;3.50;;;18.20;99.90;;;;;;4994272;28;20180;-66
2023/08/11 01:32:58;;;;;;;6.45;3.60;;;18.10;99.90;;;;;;4994686;28;20274;-64
2023/08/11 01:35:24;;;;;;;5.40;3.83;;;18.10;99.90;;;;;;4994537;28;20222;-64
2023/08/11 01:37:50;;;;;;;5.22;3.47;;;18.10;99.90;;;;;;4995277;28;20187;-64
2023/08/11 01:40:16;;;;;;;5.13;3.38;;;18.10;99.90;;;;;;4993547;28;20191;-65
2023/08/11 01:42:43;;;;;;;7.75;3.80;;;18.10;99.90;;;;;;4995032;28;20210;-64
2023/08/11 01:45:13;;;;;;;5.13;3.45;;;18.10;99.90;;;;;;4987441;28;20183;-64
2023/08/11 01:47:42;;;;;;;4.53;3.05;;;18.00;99.90;;;;;;4980996;28;20195;-65
2023/08/11 01:50:15;;;;;;;5.57;3.13;;;18.00;99.90;;;;;;4994853;28;20203;-64
2023/08/11 01:52:51;;;;;;;6.85;3.03;;;18.00;99.90;;;;;;4994225;28;20179;-64
2023/08/11 01:55:18;;;;;;;5.47;3.15;;;18.00;99.90;;;;;;4986893;28;20249;-64
2023/08/11 01:57:44;;;;;;;5.70;3.05;;;18.00;99.90;;;;;;4975454;28;20199;-64
2023/08/11 02:00:13;;;;;;;5.18;3.20;;;17.90;99.90;;;;;;4985336;28;20274;-64
2023/08/11 02:02:39;;;;;;;6.53;3.50;;;17.90;99.90;;;;;;4984043;28;20237;-64
2023/08/11 02:05:11;;;;;;;5.05;3.20;;;17.90;99.90;;;;;;4993713;28;20179;-65
2023/08/11 02:07:40;;;;;;;3.25;2.80;;;17.90;99.90;;;;;;4994682;28;20171;-64
2023/08/11 02:10:08;;;;;;;3.60;2.78;;;17.90;99.90;;;;;;4994239;28;20181;-65
2023/08/11 02:12:34;;;;;;;4.20;2.90;;;17.90;99.90;;;;;;5007607;28;20279;-64
2023/08/11 02:14:59;;;;;;;4.28;2.72;;;17.90;99.90;;;;;;4985920;28;20283;-64
2023/08/11 02:17:25;;;;;;;4.50;2.85;;;17.90;99.90;;;;;;4982595;28;20180;-64
2023/08/11 02:19:51;;;;;;;3.72;3.05;;;17.90;99.90;;;;;;4993374;28;20443;-64
2023/08/11 02:22:19;;;;;;;5.03;3.17;;;17.80;99.90;;;;;;4994413;28;20228;-63
2023/08/11 02:24:45;;;;;;;5.13;2.95;;;17.80;99.90;;;;;;4994587;28;20242;-64
2023/08/11 02:27:13;;;;;;;3.95;2.83;;;17.80;99.90;;;;;;4986321;28;20187;-64
2023/08/11 02:29:38;;;;;;;3.63;2.50;;;17.80;99.90;;;;;;4990759;28;20282;-64
2023/08/11 02:32:04;;;;;;;3.45;2.83;;;17.80;99.90;;;;;;4976200;28;20172;-64
2023/08/11 02:34:30;;;;;;;5.65;2.95;;;17.80;99.90;;;;;;4993994;28;20179;-65
2023/08/11 02:36:58;;;;;;;4.50;2.63;;;17.80;99.90;;;;;;4994422;28;20195;-64
2023/08/11 02:39:24;;;;;;;5.20;2.60;;;17.70;99.90;;;;;;4989834;28;20203;-64
2023/08/11 02:41:52;;;;;;;3.60;2.60;;;17.70;99.90;;;;;;4994196;28;20191;-64
2023/08/11 02:44:19;;;;;;;4.10;2.53;;;17.70;99.90;;;;;;4994119;28;20222;-64
2023/08/11 02:46:47;;;;;;;3.50;2.75;;;17.70;99.90;;;;;;4994212;28;20183;-64
2023/08/11 02:49:13;;;;;;;4.13;2.60;;;17.70;99.90;;;;;;4994159;28;20223;-64
2023/08/11 02:51:38;;;;;;;5.07;2.75;;;17.70;99.90;;;;;;4994357;28;20194;-64
2023/08/11 02:54:06;;;;;;;3.45;2.45;;;17.70;99.90;;;;;;4993836;28;20191;-64
2023/08/11 02:56:36;;;;;;;4.20;2.80;;;17.60;99.90;;;;;;4994135;28;20254;-64
2023/08/11 02:59:02;;;;;;;4.32;2.65;;;17.60;99.90;;;;;;4993592;28;20366;-64
2023/08/11 03:01:32;;;;;;;4.10;2.67;;;17.60;99.90;;;;;;4992615;28;20475;-64
2023/08/11 03:04:00;;;;;;;4.28;2.83;;;17.60;99.90;;;;;;4994175;28;20171;-64
2023/08/11 03:06:28;;;;;;;4.22;2.72;;;17.60;99.90;;;;;;4994080;28;20266;-64
2023/08/11 03:08:53;;;;;;;4.78;2.70;;;17.50;99.90;;;;;;4993682;28;20290;-64
2023/08/11 03:11:19;;;;;;;4.30;2.58;;;17.50;99.90;;;;;;4993503;28;20274;-63
2023/08/11 03:13:45;;;;;;;4.07;2.67;;;17.50;99.90;;;;;;4990596;28;20194;-64
2023/08/11 03:16:10;;;;;;;4.10;2.67;;;17.50;99.90;;;;;;4993560;28;20214;-64
2023/08/11 03:18:37;;;;;;;3.22;2.47;;;17.40;99.90;;;;;;4997538;28;20459;-64
2023/08/11 03:21:03;;;;;;;3.92;2.83;;;17.40;99.90;;;;;;4997747;28;20225;-64
2023/08/11 03:23:28;;;;;;;3.97;2.50;;;17.40;99.90;;;;;;4997367;28;20191;-64
2023/08/11 03:25:56;;;;;;;3.97;2.40;;;17.40;99.90;;;;;;4997590;28;20167;-64
2023/08/11 03:28:22;;;;;;;3.75;2.38;;;17.40;99.90;;;;;;4996210;28;20217;-64
2023/08/11 03:30:50;;;;;;;3.17;2.47;;;17.40;99.90;;;;;;4995938;28;20270;-64
2023/08/11 03:33:18;;;;;;;3.95;2.80;;;17.30;99.90;;;;;;4999849;28;20180;-65
2023/08/11 03:35:44;;;;;;;4.35;2.80;;;17.30;99.90;;;;;;4996937;28;20277;-64
2023/08/11 03:38:09;;;;;;;4.00;2.90;;;17.30;99.90;;;;;;4997267;28;20203;-64
2023/08/11 03:40:35;;;;;;;4.65;3.17;;;17.30;99.90;;;;;;4990117;28;20257;-65
2023/08/11 03:43:01;;;;;;;6.13;4.78;;;17.30;99.90;;;;;;4996964;28;20211;-64
2023/08/11 03:45:27;;;;;;;4.65;3.80;;;17.30;99.90;;;;;;4996241;28;20180;-64
2023/08/11 03:47:52;;;;;;;6.53;3.97;;;17.30;99.90;;;;;;4996351;28;20207;-65
2023/08/11 03:50:18;;;;;;;6.05;3.50;;;17.30;99.90;;;;;;5003801;28;20213;-63
2023/08/11 03:52:45;;;;;;;5.22;3.60;;;17.30;99.90;;;;;;5008958;28;20238;-64
2023/08/11 03:55:13;;;;;;;3.75;3.08;;;17.20;99.90;;;;;;4996713;28;20211;-64
2023/08/11 03:57:39;;;;;;;8.55;6.22;;;17.20;99.90;;;;;;4996996;28;20202;-64
2023/08/11 04:00:14;;;;;;;5.43;4.78;;;17.20;99.90;;;;;;4996802;28;20370;-64
2023/08/11 04:02:45;;;;;;;6.25;4.43;;;17.20;99.90;;;;;;4991916;28;20194;-65
2023/08/11 04:05:11;;;;;;;4.82;3.50;;;17.10;99.90;;;;;;4996603;28;20270;-64
2023/08/11 04:07:38;;;;;;;5.10;3.60;;;17.10;99.90;;;;;;5007624;28;20210;-64
2023/08/11 04:10:06;;;;;;;5.10;3.38;;;17.10;99.90;;;;;;4996865;28;20183;-64
2023/08/11 04:12:32;;;;;;;4.07;3.10;;;17.00;99.90;;;;;;4996406;28;20186;-64
2023/08/11 04:15:00;;;;;;;5.68;3.58;;;17.00;99.90;;;;;;4991255;28;20184;-64
2023/08/11 04:17:26;;;;;;;5.95;3.03;;;17.00;99.90;;;;;;4996420;28;20222;-64
2023/08/11 04:19:56;;;;;;;4.13;3.03;;;17.00;99.90;;;;;;4996868;28;20225;-65
2023/08/11 04:22:24;;;;;;;5.53;3.35;;;17.00;99.90;;;;;;4996803;28;20171;-64
2023/08/11 04:24:52;;;;;;;5.00;3.78;;;17.00;99.90;;;;;;5016546;28;20171;-64
2023/08/11 04:27:17;;;;;;;6.10;4.65;;;17.00;99.90;;;;;;4999021;28;20278;-64
2023/08/11 04:29:45;;;;;;;6.00;3.90;;;17.00;99.90;;;;;;4993885;28;20183;-64
2023/08/11 04:32:14;;;;;;;4.97;4.18;;;16.90;99.90;;;;;;4996653;28;20179;-64
2023/08/11 04:34:42;;;;;;;4.80;3.58;;;17.00;99.90;;;;;;4995276;28;20194;-64
2023/08/11 04:37:08;;;;;;;5.00;3.20;;;17.00;99.90;;;;;;4995779;28;20202;-64
2023/08/11 04:39:36;;;;;;;4.30;3.40;;;16.90;99.90;;;;;;4995971;28;20254;-63
2023/08/11 04:42:02;;;;;;;5.55;3.38;;;16.90;99.90;;;;;;4995692;28;20262;-64
2023/08/11 04:44:28;;;;;;;4.35;3.38;;;17.00;99.90;;;;;;4996002;28;20176;-64
2023/08/11 04:46:53;;;;;;;7.15;4.97;;;16.90;99.90;;;;;;4996135;28;20187;-64
2023/08/11 04:49:19;;;;;;;11.52;7.97;;;16.90;99.90;;;;;;4996074;28;20254;-64
2023/08/11 04:51:48;;;;;;;7.40;5.30;;;16.90;99.90;;;;;;4995491;28;20270;-64
2023/08/11 04:54:13;;;;;;;5.63;4.18;;;17.00;99.90;;;;;;4995793;28;20179;-65
2023/08/11 04:56:44;;;;;;;5.25;3.72;;;17.00;99.90;;;;;;4996093;28;20203;-64
2023/08/11 04:59:09;;;;;;;4.57;3.53;;;17.00;99.90;;;;;;4988066;28;20199;-64
2023/08/11 05:01:38;;;;;;;5.00;3.20;;;17.10;99.90;;;;;;4999774;28;20180;-64
2023/08/11 05:04:06;;;;;;;4.55;3.05;;;17.10;99.90;;;;;;5019816;28;20199;-65
2023/08/11 05:06:35;;;;;;;4.68;3.10;;;17.10;99.90;;;;;;4996188;28;20167;-65
2023/08/11 05:09:04;;;;;;;3.40;2.70;;;17.20;99.90;;;;;;4995409;28;20179;-65
2023/08/11 05:11:30;;;;;;;3.50;2.75;;;17.20;99.90;;;;;;4995389;28;20202;-64
2023/08/11 05:13:58;;;;;;;4.60;2.67;;;17.20;99.90;;;;;;4995995;28;20194;-65
2023/08/11 05:16:26;;;;;;;3.75;2.67;;;17.30;99.90;;;;;;4995519;28;20266;-65
2023/08/11 05:18:54;;;;;;;3.70;2.67;;;17.30;99.90;;;;;;4987423;28;20203;-65
2023/08/11 05:21:20;;;;;;;3.95;2.60;;;17.30;99.90;;;;;;4995555;28;20183;-65
2023/08/11 05:23:45;;;;;;;4.15;2.67;;;17.40;99.90;;;;;;4995485;28;20175;-65
2023/08/11 05:26:13;;;;;;;6.72;2.75;;;17.40;99.90;;;;;;4995023;28;20205;-65
2023/08/11 05:28:47;;;;;;;4.35;2.67;;;17.50;99.90;;;;;;4994950;28;20266;-65
2023/08/11 05:31:15;;;;;;;4.88;2.40;;;17.50;99.90;;;;;;4995206;28;20179;-65
2023/08/11 05:33:40;;;;;;;3.38;2.63;;;17.60;99.90;;;;;;4994846;28;20258;-66
2023/08/11 05:36:07;;;;;;;3.20;2.50;;;17.60;99.90;;;;;;4995354;28;20172;-66
2023/08/11 05:38:32;;;;;;;4.50;2.45;;;17.70;99.90;;;;;;4994911;28;20289;-65
2023/08/11 05:40:58;;;;;;;2.70;2.30;;;17.70;99.90;;;;;;4993769;28;20270;-65
2023/08/11 05:43:23;;;;;;;4.53;2.40;;;17.80;99.90;;;;;;4994804;28;20182;-65
2023/08/11 05:45:49;;;;;;;4.72;2.40;;;17.90;99.90;;;;;;4995019;28;20180;-66
2023/08/11 05:48:15;;;;;;;3.10;2.10;;;17.90;99.90;;;;;;4994788;28;20215;-64
2023/08/11 05:50:44;;;;;;;3.38;2.00;;;18.00;99.90;;;;;;4995232;28;20175;-64
2023/08/11 05:53:13;;;;;;;3.83;2.60;;;18.00;99.90;;;;;;4985477;28;20198;-65
2023/08/11 05:55:39;;;;;;;3.58;2.20;;;18.10;99.90;;;;;;4975784;28;20207;-64
2023/08/11 05:58:04;;;;;;;3.58;2.20;;;18.20;99.90;;;;;;4992860;28;20245;-64
2023/08/11 06:00:32;;;;;;;3.03;2.15;;;18.20;99.90;;;;;;4993251;28;20196;-64
2023/08/11 06:02:58;;;;;;;3.53;2.22;;;18.30;99.90;;;;;;4994179;28;20415;-64
2023/08/11 06:05:24;;;;;;;3.72;2.03;;;18.40;99.90;;;;;;4994550;28;20179;-65
2023/08/11 06:07:49;;;;;;;4.18;2.35;;;18.40;99.90;;;;;;4994511;28;20184;-64
2023/08/11 06:10:17;;;;;;;2.58;2.03;;;18.50;99.90;;;;;;4994222;28;20274;-65
2023/08/11 06:12:45;;;;;;;3.25;2.30;;;18.50;99.90;;;;;;4994315;28;20273;-64
2023/08/11 06:15:11;;;;;;;4.45;2.25;;;18.60;99.90;;;;;;4994821;28;20175;-63
2023/08/11 06:17:37;;;;;;;3.13;2.15;;;18.70;99.90;;;;;;4994651;28;20396;-66
2023/08/11 06:20:04;;;;;;;3.13;2.10;;;18.70;99.90;;;;;;4994348;28;20281;-64
2023/08/11 06:22:33;;;;;;;2.90;2.15;;;18.80;99.90;;;;;;4978641;28;20179;-64
2023/08/11 06:25:01;;;;;;;3.55;2.10;;;18.90;99.90;;;;;;4995083;28;20187;-65
2023/08/11 06:27:29;;;;;;;3.05;2.10;;;18.90;99.90;;;;;;4994275;28;20327;-66
2023/08/11 06:29:55;;;;;;;2.78;2.08;;;19.00;99.90;;;;;;4994392;28;20174;-64
2023/08/11 06:32:23;;;;;;;2.35;1.92;;;19.10;99.90;;;;;;4994653;28;20229;-64
2023/08/11 06:34:49;;;;;;;3.42;2.10;;;19.20;99.90;;;;;;4994043;28;20175;-64
2023/08/11 06:37:17;;;;;;;3.55;2.10;;;19.20;99.90;;;;;;4994242;28;20179;-65
2023/08/11 06:39:43;;;;;;;2.83;2.20;;;19.30;99.90;;;;;;4994347;28;20187;-65
2023/08/11 06:42:08;;;;;;;3.00;1.90;;;19.40;99.90;;;;;;4976017;28;20176;-65
2023/08/11 06:44:36;;;;;;;3.47;2.20;;;19.50;99.90;;;;;;4992424;28;20175;-64
2023/08/11 06:49:30;;;;;;;3.88;2.13;;;19.60;99.90;;;;;;4992673;28;20222;-65
2023/08/11 06:51:57;;;;;;;4.25;2.15;;;19.70;99.90;;;;;;4990300;28;20176;-64
2023/08/11 06:54:23;;;;;;;4.47;2.33;;;19.80;99.90;;;;;;4997910;28;20171;-65
2023/08/11 06:56:49;;;;;;;3.08;2.20;;;19.90;99.90;;;;;;4997779;28;20175;-65
2023/08/11 06:59:14;;;;;;;3.20;2.40;;;19.90;99.90;;;;;;4997670;28;20230;-64
2023/08/11 07:01:40;;;;;;;2.80;1.95;;;20.00;99.90;;;;;;4994195;28;20176;-65
2023/08/11 07:04:07;;;;;;;4.32;2.38;;;20.10;99.90;;;;;;4988042;28;20180;-65
2023/08/11 07:06:37;;;;;;;4.32;2.30;;;20.20;99.90;;;;;;4997880;28;20194;-65
2023/08/11 07:09:06;;;;;;;4.00;2.10;;;20.20;99.90;;;;;;4997886;28;20195;-65
2023/08/11 07:11:36;;;;;;;3.58;2.30;;;20.30;99.90;;;;;;4997870;28;20236;-65
2023/08/11 07:14:04;;;;;;;3.30;2.13;;;20.40;99.90;;;;;;4997960;28;20184;-65
2023/08/11 07:16:30;;;;;;;5.00;2.38;;;20.50;99.90;;;;;;4997909;28;20183;-65
2023/08/11 07:18:55;;;;;;;3.53;2.05;;;20.60;99.90;;;;;;4997475;28;20207;-65
2023/08/11 07:21:21;;;;;;;3.63;2.10;;;20.70;99.90;;;;;;4997699;28;20184;-65
2023/08/11 07:23:47;;;;;;;3.40;2.10;;;20.80;99.90;;;;;;4997777;28;20266;-65
2023/08/11 07:26:12;;;;;;;4.95;2.00;;;20.80;99.90;;;;;;4997314;28;20218;-65
2023/08/11 07:28:38;;;;;;;5.13;2.17;;;20.90;99.90;;;;;;4997451;28;20183;-65
2023/08/11 07:31:04;;;;;;;2.45;1.85;;;21.00;99.90;;;;;;4997122;28;20186;-65
2023/08/11 07:33:29;;;;;;;2.08;1.83;;;21.00;99.90;;;;;;4997148;28;20195;-65
2023/08/11 07:35:55;;;;;;;3.78;2.30;;;21.10;99.90;;;;;;4993182;28;20184;-64
2023/08/11 07:38:23;;;;;;;2.83;1.92;;;21.20;99.90;;;;;;4990006;28;20187;-65
2023/08/11 07:40:49;;;;;;;2.78;2.03;;;21.30;99.90;;;;;;4997102;28;20226;-65
2023/08/11 07:43:17;;;;;;;4.03;2.33;;;21.40;99.90;;;;;;4997297;28;20175;-65
2023/08/11 07:45:42;;;;;;;3.15;2.15;;;21.40;99.90;;;;;;4997014;28;20241;-65
2023/08/11 07:48:10;;;;;;;2.55;1.90;;;21.50;99.90;;;;;;4996417;28;20210;-65
2023/08/11 07:50:36;;;;;;;3.03;2.28;;;21.60;99.90;;;;;;4997266;28;20259;-65
2023/08/11 07:53:03;;;;;;;3.42;2.33;;;21.70;99.90;;;;;;4977994;28;20237;-64
2023/08/11 07:55:29;;;;;;;2.65;2.10;;;21.80;99.90;;;;;;4994201;28;20200;-64
2023/08/11 07:57:57;;;;;;;3.35;2.00;;;21.90;99.90;;;;;;4995630;28;20195;-66
2023/08/11 08:00:25;;;;;;;2.05;1.85;;;22.00;99.90;;;;;;4997735;28;20222;-66
2023/08/11 08:02:52;;;;;;;3.03;2.22;;;22.10;99.90;;;;;;4997471;28;20214;-67
2023/08/11 08:05:20;;;;;;;2.22;1.83;;;22.20;99.90;;;;;;4997556;28;20183;-66
2023/08/11 08:07:51;;;;;;;2.63;2.00;;;22.30;99.90;;;;;;4997523;28;20254;-67
2023/08/11 08:10:16;;;;;;;2.58;1.83;;;22.40;99.90;;;;;;4997457;28;20226;-66
2023/08/11 08:12:45;;;;;;;3.53;1.65;;;22.50;99.90;;;;;;4997577;28;20339;-66
2023/08/11 08:15:14;;;;;;;2.97;2.00;;;22.60;99.90;;;;;;4998058;28;20226;-66
2023/08/11 08:17:44;;;;;;;2.78;1.75;;;22.70;99.90;;;;;;4997124;28;20211;-66
2023/08/11 08:20:13;;;;;;;2.58;2.00;;;22.80;99.90;;;;;;4998843;28;20199;-66
2023/08/11 08:22:39;;;;;;;3.40;1.95;;;23.00;99.90;;;;;;5016616;28;20170;-65
2023/08/11 08:25:06;;;;;;;2.42;1.80;;;23.10;99.90;;;;;;4997119;28;20265;-66
2023/08/11 08:27:36;;;;;;;2.63;1.88;;;23.20;99.90;;;;;;4996860;28;20179;-66
2023/08/11 08:30:02;;;;;;;2.50;1.98;;;23.30;99.90;;;;;;4990732;28;20202;-64
2023/08/11 08:32:29;;;;;;;3.03;1.88;;;23.40;99.90;;;;;;4977361;28;20298;-66
2023/08/11 08:34:55;;;;;;;2.67;2.08;;;23.60;99.90;;;;;;4990988;28;20238;-65
2023/08/11 08:37:25;;;;;;;5.70;2.20;;;23.70;99.90;;;;;;4993110;28;20231;-64
2023/08/11 08:39:53;;;;;;;3.22;1.77;;;23.80;99.90;;;;;;4976717;28;20203;-64
2023/08/11 08:42:22;;;;;;;3.33;2.00;;;23.90;99.90;;;;;;4996056;28;20175;-64
2023/08/11 08:44:49;;;;;;;5.63;2.00;;;24.00;99.90;;;;;;4996394;28;20172;-65
2023/08/11 08:47:18;;;;;;;2.22;1.92;;;24.20;99.90;;;;;;4999169;28;20349;-64
2023/08/11 08:49:48;;;;;;;2.20;1.90;;;24.30;99.90;;;;;;5000613;28;20176;-64
2023/08/11 08:52:16;;;;;;;3.42;2.08;;;24.40;99.90;;;;;;4989009;28;20179;-64
2023/08/11 08:54:44;;;;;;;2.58;1.83;;;24.50;99.90;;;;;;4995959;28;20209;-64
2023/08/11 08:57:12;;;;;;;2.95;1.92;;;24.60;99.90;;;;;;5011991;28;20194;-64
2023/08/11 08:59:42;;;;;;;3.63;1.90;;;24.70;99.90;;;;;;4993873;28;20458;-64
2023/08/11 09:02:09;;;;;;;3.53;2.20;;;24.80;99.90;;;;;;4992332;28;20266;-64
2023/08/11 09:04:34;;;;;;;2.58;1.90;;;24.90;99.90;;;;;;5007881;28;20234;-64
2023/08/11 09:07:00;;;;;;;3.05;1.83;;;25.00;99.90;;;;;;4995757;28;20191;-64
2023/08/11 09:09:30;;;;;;;3.22;1.90;;;25.10;99.90;;;;;;4995476;28;20246;-64
2023/08/11 09:11:59;;;;;;;3.17;2.00;;;25.20;99.90;;;;;;4995617;28;20183;-64
2023/08/11 09:14:27;;;;;;;3.05;1.85;;;25.30;99.90;;;;;;4995283;28;20372;-64
2023/08/11 09:16:58;;;;;;;2.83;2.25;;;25.50;99.90;;;;;;4992204;28;20200;-65
2023/08/11 09:19:24;;;;;;;2.20;1.70;;;25.60;99.90;;;;;;5007943;28;20210;-64
2023/08/11 09:21:52;;;;;;;2.22;1.80;;;25.70;99.90;;;;;;4995445;28;20179;-64
2023/08/11 09:24:18;;;;;;;2.08;1.63;;;25.80;99.90;;;;;;4995364;28;20512;-64
2023/08/11 09:26:49;;;;;;;3.50;2.13;;;25.90;99.90;;;;;;4995503;28;20191;-65
2023/08/11 09:29:17;;;;;;;2.35;2.08;;;26.00;99.90;;;;;;4995037;28;20184;-65
2023/08/11 09:31:52;;;;;;;2.58;1.83;;;26.10;99.90;;;;;;4994674;28;20214;-65
2023/08/11 09:34:19;;;;;;;3.10;1.77;;;26.20;99.90;;;;;;4995312;28;20178;-64
2023/08/11 09:36:48;;;;;;;2.53;2.08;;;26.30;99.90;;;;;;4995545;28;20182;-64
2023/08/11 09:39:17;;;;;;;3.25;2.30;;;26.40;99.90;;;;;;4994524;28;20250;-66
2023/08/11 09:41:51;;;;;;;3.05;1.90;;;26.50;99.90;;;;;;4995290;28;20186;-65
2023/08/11 09:44:21;;;;;;;2.47;1.90;;;26.70;99.90;;;;;;4991974;28;20246;-66
2023/08/11 09:46:49;;;;;;;2.63;1.75;;;26.70;99.90;;;;;;4993877;28;20253;-64
2023/08/11 09:49:18;;;;;;;3.38;2.10;;;26.90;99.90;;;;;;4995098;28;20206;-64
2023/08/11 09:51:45;;;;;;;2.45;1.90;;;26.90;99.90;;;;;;4995143;28;20202;-64
2023/08/11 09:54:11;;;;;;;4.05;1.83;;;27.10;99.90;;;;;;4995711;28;20199;-65
2023/08/11 09:56:42;;;;;;;1.80;1.70;;;27.10;99.90;;;;;;4994945;28;20199;-65
2023/08/11 09:59:16;;;;;;;2.75;2.13;;;27.20;99.90;;;;;;4991445;28;20218;-65
2023/08/11 10:01:45;;;;;;;4.30;1.95;;;27.40;99.90;;;;;;4993409;28;20198;-65
2023/08/11 10:04:18;;;;;;;2.38;1.80;;;27.40;99.90;;;;;;4975694;28;20176;-65
2023/08/11 10:06:51;;;;;;;2.70;1.90;;;27.50;99.90;;;;;;4990393;28;20167;-65
2023/08/11 10:09:21;;;;;;;2.35;1.92;;;27.60;99.90;;;;;;4994797;28;20203;-65
2023/08/11 10:11:48;;;;;;;5.20;2.10;;;27.70;99.90;;;;;;4994584;28;20211;-65
2023/08/11 10:14:17;;;;;;;5.60;3.42;;;27.80;99.90;;;;;;4995027;28;20182;-65
2023/08/11 10:16:44;;;;;;;2.85;2.55;;;28.00;99.90;;;;;;4994566;28;20199;-65
2023/08/11 10:19:12;;;;;;;2.70;2.20;;;28.00;99.90;;;;;;4994818;28;20198;-65
2023/08/11 10:21:43;;;;;;;4.28;3.10;;;28.20;99.90;;;;;;5001563;28;20207;-74
2023/08/11 10:24:12;;;;;;;2.97;2.40;;;28.40;99.90;;;;;;5014244;28;20190;-77
2023/08/11 10:26:38;;;;;;;7.05;4.82;;;28.70;99.90;;;;;;5008031;28;20180;-76
2023/08/11 10:29:08;;;;;;;3.13;2.50;;;29.00;99.90;;;;;;5000397;28;20170;-72
2023/08/11 10:31:33;;;;;;;5.28;2.70;;;29.30;99.90;;;;;;5001060;28;20194;-76
2023/08/11 10:34:08;;;;;;;3.53;2.20;;;29.70;99.90;;;;;;5000710;28;20185;-75
2023/08/11 10:36:37;;;;;;;3.50;1.98;;;30.20;99.90;;;;;;5000764;28;20173;-74
2023/08/11 10:39:09;;;;;;;2.67;1.95;;;30.60;99.90;;;;;;5013055;28;20285;-76
2023/08/11 10:41:44;;;;;;;3.10;1.92;;;30.90;99.90;;;;;;5001075;28;20162;-77
2023/08/11 10:44:17;;;;;;;2.42;1.65;;;31.30;99.90;;;;;;5000730;28;20174;-76
2023/08/11 10:46:46;;;;;;;2.08;1.88;;;31.50;99.90;;;;;;5000944;28;20281;-77
2023/08/11 10:49:14;;;;;;;3.20;2.00;;;31.80;99.90;;;;;;5001163;28;20187;-75
2023/08/11 10:51:41;;;;;;;2.70;2.00;;;32.00;99.90;;;;;;4999292;28;20221;-78
2023/08/11 10:54:07;;;;;;;1.83;1.50;;;32.20;99.90;;;;;;5000692;28;20203;-75
2023/08/11 10:56:38;;;;;;;3.45;1.70;;;32.40;99.90;;;;;;4986461;28;20175;-77
2023/08/11 10:59:15;;;;;;;2.00;1.60;;;32.50;99.90;;;;;;5001118;28;20222;-75
2023/08/11 11:01:45;;;;;;;3.00;1.95;;;32.70;99.90;;;;;;4998236;28;20214;-78
2023/08/11 11:04:14;;;;;;;2.55;1.85;;;32.80;99.90;;;;;;4986096;28;20650;-77
2023/08/11 11:06:41;;;;;;;2.45;1.70;;;32.90;99.90;;;;;;5000576;28;20182;-76
2023/08/11 11:09:10;;;;;;;2.17;1.88;;;33.10;99.90;;;;;;4974877;28;20202;-77
2023/08/11 11:11:39;;;;;;;2.00;1.73;;;33.20;99.90;;;;;;5000606;28;20205;-76
2023/08/11 11:14:06;;;;;;;3.20;2.00;;;33.30;99.90;;;;;;5000667;28;20247;-77
2023/08/11 11:16:32;;;;;;;3.00;2.00;;;33.30;99.90;;;;;;5000265;28;20205;-77
2023/08/11 11:19:01;;;;;;;2.58;1.80;;;33.40;99.90;;;;;;5000154;28;20174;-74
2023/08/11 11:21:30;;;;;;;2.88;1.65;;;33.40;99.90;;;;;;5003056;28;20175;-76
2023/08/11 11:23:55;;;;;;;2.20;1.75;;;33.30;99.90;;;;;;5010482;28;20249;-77
2023/08/11 11:26:25;;;;;;;2.17;1.92;;;33.20;99.90;;;;;;5000465;28;20198;-78
2023/08/11 11:28:54;;;;;;;3.35;1.42;;;33.20;99.90;;;;;;5000312;28;20258;-77
2023/08/11 11:31:22;;;;;;;2.13;1.67;;;33.20;99.90;;;;;;4996925;28;20195;-78
2023/08/11 11:33:49;;;;;;;1.88;1.70;;;33.30;99.90;;;;;;4990042;28;20273;-78
2023/08/11 11:36:17;;;;;;;2.30;1.48;;;33.30;99.90;;;;;;5000413;28;20174;-76
2023/08/11 11:38:43;;;;;;;3.15;2.00;;;33.40;99.90;;;;;;4996095;28;20236;-78
2023/08/11 11:41:15;;;;;;;2.22;1.80;;;33.50;99.90;;;;;;4997244;28;20203;-77
2023/08/11 11:43:43;;;;;;;2.00;1.73;;;33.50;99.90;;;;;;4997376;28;20209;-74
2023/08/11 11:46:15;;;;;;;3.08;1.95;;;33.50;99.90;;;;;;4997208;28;20261;-76
2023/08/11 11:48:44;;;;;;;1.98;1.58;;;33.50;99.90;;;;;;4983818;28;20235;-74
2023/08/11 11:51:11;;;;;;;2.20;2.00;;;33.60;99.90;;;;;;4997078;28;20237;-76
2023/08/11 11:53:38;;;;;;;2.95;1.70;;;33.60;99.90;;;;;;4996906;28;20175;-75
2023/08/11 11:56:05;;;;;;;2.40;1.70;;;33.60;99.90;;;;;;4997071;28;20189;-76
2023/08/11 11:58:33;;;;;;;2.45;1.50;;;33.70;99.90;;;;;;4982347;28;20198;-78
2023/08/11 12:01:14;;;;;;;1.90;1.70;;;33.70;99.90;;;;;;4991968;28;20199;-77
2023/08/11 12:03:49;;;;;;;1.77;1.63;;;33.80;99.00;;;;;;4996715;28;20182;-75
2023/08/11 12:06:18;;;;;;;2.28;1.50;;;33.80;99.70;;;;;;4997424;28;20181;-77
2023/08/11 12:08:50;;;;;;;1.55;1.40;;;33.90;99.90;;;;;;4993357;28;20206;-73
2023/08/11 12:11:25;;;;;;;1.80;1.42;;;33.90;98.50;;;;;;4985650;28;20190;-75
2023/08/11 12:13:53;;;;;;;2.63;1.75;;;33.90;98.80;;;;;;4996689;28;20193;-76
2023/08/11 12:16:19;;;;;;;1.88;1.70;;;34.00;99.30;;;;;;4996455;28;20217;-78
2023/08/11 12:18:47;;;;;;;1.98;1.58;;;34.10;98.10;;;;;;4995008;28;20202;-78
2023/08/11 12:21:13;;;;;;;2.63;1.50;;;34.10;97.30;;;;;;4996198;28;20190;-78
2023/08/11 12:23:41;;;;;;;2.25;1.90;;;34.10;97.60;;;;;;4993627;28;20195;-73
2023/08/11 12:26:07;;;;;;;4.18;1.80;;;34.10;97.60;;;;;;4987864;28;20178;-71
2023/08/11 12:28:33;;;;;;;2.17;1.90;;;34.10;97.40;;;;;;4993551;28;20203;-74
2023/08/11 12:30:59;;;;;;;2.83;1.70;;;34.20;97.60;;;;;;4994826;28;20281;-78
2023/08/11 12:33:25;;;;;;;2.47;1.83;;;34.20;97.20;;;;;;4990655;28;20183;-78
2023/08/11 12:35:50;;;;;;;2.50;1.70;;;34.30;96.90;;;;;;4996651;28;20174;-78
2023/08/11 12:38:17;;;;;;;2.10;1.90;;;34.30;97.00;;;;;;4995818;28;20190;-75
2023/08/11 12:40:44;;;;;;;1.80;1.60;;;34.40;96.90;;;;;;4993593;28;20190;-78
2023/08/11 12:43:10;;;;;;;3.00;2.08;;;34.50;96.00;;;;;;4994324;28;20172;-72
2023/08/11 12:45:39;;;;;;;1.83;1.58;;;34.60;95.40;;;;;;4986107;28;20299;-80
2023/08/11 12:48:06;;;;;;;2.40;1.65;;;34.70;95.20;;;;;;5034299;23;20231;-72
2023/08/11 12:50:35;;;;;;;1.60;1.50;;;34.70;94.80;;;;;;4991678;28;20193;-77
2023/08/11 12:53:05;;;;;;;1.77;1.40;;;34.70;94.40;;;;;;4996158;28;20237;-76